Time;durP1;ratioP1;P1;durP2;ratioP2;P2;SDS_P1;SDS_P2;PMS_P1;PMS_P2;Temp;Humidity;BMP_temperature;BMP_pressure;BME280_temperature;BME280_humidity;BME280_pressure;Samples;Min_cycle;Max_cycle;Signal;HPM_P1;HPM_P2
2021/05/23 00:00:58;;;;;;;3.17;2.80;;;;;;;12.75;59.03;94285.47;1751810;82;21829;-50
2021/05/23 00:03:24;;;;;;;4.67;2.80;;;;;;;12.67;59.16;94289.80;1751753;82;21079;-50
2021/05/23 00:05:51;;;;;;;4.70;3.40;;;;;;;12.57;59.35;94298.02;1751839;82;21000;-50
2021/05/23 00:08:21;;;;;;;4.67;4.03;;;;;;;12.47;59.62;94300.67;1751875;82;21511;-49
2021/05/23 00:10:53;;;;;;;5.67;4.55;;;;;;;12.37;59.81;94297.84;1751809;82;20954;-49
2021/05/23 00:13:24;;;;;;;4.60;3.27;;;;;;;12.31;60.08;94302.48;1728890;82;21063;-49
2021/05/23 00:15:59;;;;;;;2.80;2.60;;;;;;;12.26;60.16;94290.70;1751865;82;21008;-49
2021/05/23 00:18:27;;;;;;;3.27;2.70;;;;;;;12.22;60.39;94297.01;1751758;82;21076;-49
2021/05/23 00:20:54;;;;;;;4.10;2.80;;;;;;;12.20;60.46;94293.96;1751762;82;21485;-49
2021/05/23 00:23:21;;;;;;;4.83;2.95;;;;;;;12.17;60.75;94285.84;1751881;82;21499;-51
2021/05/23 00:25:51;;;;;;;5.17;2.85;;;;;;;12.12;61.02;94284.48;1751681;82;21534;-49
2021/05/23 00:28:19;;;;;;;2.90;2.60;;;;;;;12.08;61.07;94285.91;1751729;82;20980;-49
2021/05/23 00:30:45;;;;;;;5.03;4.45;;;;;;;12.04;61.26;94294.34;1751639;82;21610;-48
2021/05/23 00:33:12;;;;;;;5.65;3.90;;;;;;;11.96;61.28;94295.92;1751853;82;21622;-49
2021/05/23 00:35:39;;;;;;;3.00;2.77;;;;;;;11.92;61.43;94290.42;1751819;82;20996;-49
2021/05/23 00:38:06;;;;;;;2.80;2.65;;;;;;;11.87;61.67;94294.57;1751872;82;21075;-50
2021/05/23 00:40:34;;;;;;;3.47;2.92;;;;;;;11.80;61.90;94291.39;1751702;82;21067;-49
2021/05/23 00:43:02;;;;;;;5.42;2.95;;;;;;;11.71;62.16;94288.05;1751678;82;20992;-49
2021/05/23 00:45:29;;;;;;;2.70;2.37;;;;;;;11.66;62.52;94298.94;1751713;82;21020;-49
2021/05/23 00:47:55;;;;;;;4.45;2.90;;;;;;;11.61;62.74;94295.44;1751874;82;21036;-49
2021/05/23 00:50:24;;;;;;;8.10;3.10;;;;;;;11.55;63.07;94305.54;1751688;82;21402;-49
2021/05/23 00:52:54;;;;;;;11.95;3.67;;;;;;;11.51;63.88;94310.45;1751754;82;21007;-49
2021/05/23 00:55:23;;;;;;;8.53;3.08;;;;;;;11.49;63.81;94308.78;1751501;81;21050;-49
2021/05/23 00:57:50;;;;;;;5.20;3.55;;;;;;;11.45;63.82;94304.80;1751710;82;20920;-48
2021/05/23 01:00:46;;;;;;;5.28;3.37;;;;;;;11.41;63.82;94312.47;1751776;82;21039;-48
2021/05/23 01:03:33;;;;;;;10.15;3.40;;;;;;;11.36;63.85;94319.95;1751677;82;21079;-49
2021/05/23 01:06:08;;;;;;;7.15;3.47;;;;;;;11.31;64.43;94315.08;1751678;82;21000;-48
2021/05/23 01:08:37;;;;;;;8.15;4.80;;;;;;;11.23;64.85;94316.63;1751764;82;21028;-48
2021/05/23 01:11:19;;;;;;;5.25;4.00;;;;;;;11.15;65.15;94325.03;1751779;82;21059;-49
2021/05/23 01:14:03;;;;;;;9.35;3.52;;;;;;;11.08;65.21;94333.62;1751741;82;21551;-49
2021/05/23 01:16:43;;;;;;;3.95;3.10;;;;;;;11.02;65.72;94339.56;1751598;82;20996;-49
2021/05/23 01:19:33;;;;;;;6.58;3.42;;;;;;;10.94;66.29;94330.70;1751795;82;20953;-48
2021/05/23 01:22:18;;;;;;;4.92;3.45;;;;;;;10.87;66.79;94331.80;1751769;82;21003;-48
2021/05/23 01:25:12;;;;;;;6.33;3.50;;;;;;;10.80;66.56;94334.08;1735023;82;21230;-49
2021/05/23 01:27:44;;;;;;;10.08;3.77;;;;;;;10.73;66.60;94343.40;1751867;82;20972;-48
2021/05/23 01:30:15;;;;;;;6.92;3.58;;;;;;;10.70;66.92;94340.78;1751285;81;21159;-48
2021/05/23 01:32:45;;;;;;;8.30;4.35;;;;;;;10.63;67.24;94343.84;1751902;82;20992;-48
2021/05/23 01:35:17;;;;;;;9.88;3.60;;;;;;;10.57;67.52;94350.41;1751659;82;20960;-48
2021/05/23 01:37:47;;;;;;;9.60;3.52;;;;;;;10.49;67.89;94350.55;1751154;81;21598;-49
2021/05/23 01:40:16;;;;;;;4.05;3.62;;;;;;;10.42;68.31;94352.20;1751688;82;21031;-49
2021/05/23 01:42:43;;;;;;;5.42;3.85;;;;;;;10.40;68.43;94354.65;1751687;82;21704;-49
2021/05/23 01:45:11;;;;;;;7.80;4.78;;;;;;;10.34;68.31;94353.11;1751569;82;20980;-49
2021/05/23 01:47:38;;;;;;;6.33;5.40;;;;;;;10.32;68.51;94361.67;1751706;82;21468;-49
2021/05/23 01:50:06;;;;;;;7.55;5.00;;;;;;;10.27;68.54;94369.12;1751623;82;21043;-49
2021/05/23 01:52:33;;;;;;;7.35;4.80;;;;;;;10.24;68.58;94368.66;1751772;82;21048;-49
2021/05/23 01:54:59;;;;;;;5.85;4.87;;;;;;;10.17;68.71;94368.33;1751766;82;21019;-50
2021/05/23 01:57:26;;;;;;;7.20;4.65;;;;;;;10.09;68.95;94365.72;1728915;82;21555;-49
2021/05/23 01:59:53;;;;;;;7.17;4.53;;;;;;;10.03;69.00;94370.88;1751702;82;21064;-49
2021/05/23 02:02:19;;;;;;;10.23;4.90;;;;;;;10.00;69.10;94369.75;1751622;82;20996;-50
2021/05/23 02:04:46;;;;;;;10.72;5.03;;;;;;;9.98;69.23;94366.70;1751653;82;21079;-49
2021/05/23 02:07:13;;;;;;;5.80;4.42;;;;;;;9.96;69.27;94367.02;1751734;82;21145;-50
2021/05/23 02:09:39;;;;;;;5.40;4.40;;;;;;;9.91;69.41;94375.82;1751560;82;21483;-49
2021/05/23 02:12:07;;;;;;;5.58;4.72;;;;;;;9.89;69.41;94386.50;1751722;82;21049;-49
2021/05/23 02:14:33;;;;;;;8.15;4.05;;;;;;;9.87;69.44;94369.70;1751598;82;21091;-50
2021/05/23 02:17:02;;;;;;;4.20;3.80;;;;;;;9.83;69.46;94380.07;1751544;82;20893;-49
2021/05/23 02:19:29;;;;;;;9.40;4.20;;;;;;;9.78;69.44;94377.92;1751754;82;21076;-49
2021/05/23 02:21:55;;;;;;;5.20;3.87;;;;;;;9.75;69.54;94378.80;1751627;82;21083;-50
2021/05/23 02:24:22;;;;;;;3.65;3.30;;;;;;;9.69;69.62;94373.73;1751804;82;21561;-49
2021/05/23 02:26:49;;;;;;;6.22;4.12;;;;;;;9.66;69.72;94385.63;1751672;82;20988;-49
2021/05/23 02:29:15;;;;;;;5.05;3.62;;;;;;;9.65;70.04;94388.97;1751732;82;21051;-49
2021/05/23 02:31:42;;;;;;;4.20;3.80;;;;;;;9.62;70.01;94390.49;1751509;82;21143;-49
2021/05/23 02:34:09;;;;;;;4.00;3.70;;;;;;;9.58;70.13;94398.11;1751592;82;20993;-49
2021/05/23 02:36:35;;;;;;;6.35;5.42;;;;;;;9.55;70.21;94403.88;1751710;82;21024;-49
2021/05/23 02:39:03;;;;;;;5.22;4.72;;;;;;;9.49;70.33;94399.41;1751759;82;21115;-48
2021/05/23 02:41:30;;;;;;;8.58;4.65;;;;;;;9.43;70.45;94406.70;1751626;82;20996;-49
2021/05/23 02:43:56;;;;;;;5.60;3.90;;;;;;;9.37;71.17;94407.09;1751773;82;21160;-49
2021/05/23 02:46:25;;;;;;;5.72;4.53;;;;;;;9.33;71.62;94407.25;1751567;82;21031;-48
2021/05/23 02:48:52;;;;;;;6.12;4.90;;;;;;;9.31;71.65;94417.91;1751783;82;21491;-48
2021/05/23 02:51:19;;;;;;;6.28;4.67;;;;;;;9.28;72.08;94418.03;1751748;82;20992;-48
2021/05/23 02:53:47;;;;;;;11.10;5.65;;;;;;;9.28;72.54;94418.78;1751787;82;21016;-48
2021/05/23 02:56:13;;;;;;;7.35;5.28;;;;;;;9.26;72.50;94418.45;1751543;82;21211;-49
2021/05/23 02:58:40;;;;;;;13.32;5.08;;;;;;;9.23;72.65;94422.10;1751566;82;21015;-48
2021/05/23 03:01:07;;;;;;;12.65;5.78;;;;;;;9.19;73.12;94425.58;1751746;82;21029;-48
2021/05/23 03:03:33;;;;;;;8.08;5.50;;;;;;;9.21;73.27;94421.78;1751809;82;21797;-49
2021/05/23 03:06:00;;;;;;;9.23;4.50;;;;;;;9.26;73.22;94423.95;1751825;82;21004;-49
2021/05/23 03:08:27;;;;;;;9.20;4.62;;;;;;;9.25;72.89;94429.28;1751876;82;21763;-49
2021/05/23 03:10:54;;;;;;;5.45;4.53;;;;;;;9.24;72.82;94423.63;1751832;82;21032;-49
2021/05/23 03:13:21;;;;;;;10.25;5.50;;;;;;;9.21;72.73;94426.52;1751759;82;21480;-49
2021/05/23 03:15:49;;;;;;;12.90;6.90;;;;;;;9.20;73.06;94426.33;1751716;82;20984;-49
2021/05/23 03:18:16;;;;;;;7.42;4.92;;;;;;;9.27;73.42;94427.47;1751816;82;21543;-48
2021/05/23 03:20:44;;;;;;;7.67;3.95;;;;;;;9.33;73.24;94425.67;1751671;82;21024;-49
2021/05/23 03:23:11;;;;;;;11.78;5.37;;;;;;;9.37;73.09;94431.21;1751933;82;21499;-50
2021/05/23 03:25:38;;;;;;;5.30;3.87;;;;;;;9.40;73.37;94426.20;1751833;82;21012;-50
2021/05/23 03:28:06;;;;;;;8.58;4.87;;;;;;;9.41;73.55;94426.98;1751752;82;21142;-50
2021/05/23 03:30:40;;;;;;;8.98;4.92;;;;;;;9.43;73.67;94431.41;1751860;82;21591;-50
2021/05/23 03:33:08;;;;;;;7.83;4.72;;;;;;;9.48;73.81;94436.31;1751771;82;21050;-51
2021/05/23 03:35:37;;;;;;;5.53;4.90;;;;;;;9.59;73.87;94435.34;1751664;82;21098;-50
2021/05/23 03:38:04;;;;;;;8.25;4.12;;;;;;;9.70;73.76;94438.44;1751724;82;21032;-50
2021/05/23 03:40:35;;;;;;;11.95;4.80;;;;;;;9.84;73.45;94435.92;1751629;82;21029;-52
2021/05/23 03:43:00;;;;;;;6.42;4.72;;;;;;;9.96;73.23;94446.08;1751477;82;21016;-50
2021/05/23 03:45:27;;;;;;;6.10;4.40;;;;;;;10.07;73.01;94448.45;1751762;82;21756;-50
2021/05/23 03:47:54;;;;;;;7.72;4.17;;;;;;;10.14;72.64;94453.07;1751703;82;21115;-50
2021/05/23 03:50:22;;;;;;;8.65;4.45;;;;;;;10.19;72.13;94454.47;1751859;82;21020;-50
2021/05/23 03:52:51;;;;;;;7.37;4.60;;;;;;;10.23;71.82;94449.00;1751665;82;20984;-49
2021/05/23 03:55:19;;;;;;;6.05;4.35;;;;;;;10.26;71.70;94458.31;1751814;82;21059;-51
2021/05/23 03:57:46;;;;;;;9.43;5.15;;;;;;;10.28;71.12;94465.50;1751812;82;21098;-50
2021/05/23 04:00:15;;;;;;;5.05;4.55;;;;;;;10.34;70.50;94471.95;1751599;82;21076;-51
2021/05/23 04:02:45;;;;;;;6.20;4.62;;;;;;;10.41;70.27;94483.45;1751778;82;20992;-50
2021/05/23 04:05:12;;;;;;;10.75;4.67;;;;;;;10.50;69.90;94479.97;1751660;80;20985;-49
2021/05/23 04:07:39;;;;;;;7.28;3.92;;;;;;;10.57;69.82;94472.80;1751651;82;20991;-49
2021/05/23 04:10:09;;;;;;;5.42;4.08;;;;;;;10.64;69.63;94482.92;1751837;82;21821;-50
2021/05/23 04:12:42;;;;;;;10.13;4.70;;;;;;;10.70;69.31;94487.22;1751619;82;21089;-49
2021/05/23 04:15:08;;;;;;;6.50;4.47;;;;;;;10.76;69.18;94497.19;1750607;81;21019;-50
2021/05/23 04:17:37;;;;;;;9.10;7.03;;;;;;;10.79;69.02;94490.77;1751675;82;21091;-49
2021/05/23 04:20:09;;;;;;;10.05;7.08;;;;;;;10.84;68.93;94492.91;1751635;82;21550;-50
2021/05/23 04:22:36;;;;;;;8.78;4.45;;;;;;;10.97;68.38;94490.19;1751889;82;21076;-49
2021/05/23 04:25:06;;;;;;;6.75;4.40;;;;;;;11.13;67.99;94493.30;1751702;82;21484;-50
2021/05/23 04:27:32;;;;;;;7.17;4.67;;;;;;;11.19;67.41;94486.70;1751753;82;21440;-49
2021/05/23 04:29:59;;;;;;;4.25;3.85;;;;;;;11.26;67.26;94494.69;1751770;82;21023;-49
2021/05/23 04:32:26;;;;;;;7.78;4.33;;;;;;;11.34;66.95;94486.89;1751843;82;21079;-50
2021/05/23 04:34:53;;;;;;;7.75;4.67;;;;;;;11.41;66.63;94492.09;1751810;82;21724;-49
2021/05/23 04:37:19;;;;;;;9.08;5.45;;;;;;;11.45;66.41;94487.97;1751608;82;21015;-48
2021/05/23 04:39:46;;;;;;;7.87;5.45;;;;;;;11.50;66.40;94492.86;1751780;82;21043;-49
2021/05/23 04:42:13;;;;;;;7.90;5.30;;;;;;;11.56;66.31;94481.41;1751729;82;21047;-48
2021/05/23 04:44:39;;;;;;;6.42;5.08;;;;;;;11.63;66.14;94482.49;1751852;82;20984;-49
2021/05/23 04:47:06;;;;;;;8.73;5.28;;;;;;;11.75;66.06;94487.06;1751698;82;21679;-48
2021/05/23 04:49:38;;;;;;;9.58;5.30;;;;;;;11.85;65.60;94487.22;1751745;82;20996;-49
2021/05/23 04:52:02;;;;;;;5.40;4.20;;;;;;;11.95;65.22;94487.38;1751226;81;20952;-50
2021/05/23 04:54:29;;;;;;;6.85;4.83;;;;;;;11.99;64.73;94489.35;1751812;82;21032;-50
2021/05/23 04:56:55;;;;;;;11.88;4.55;;;;;;;11.99;64.71;94489.95;1751835;82;21068;-50
2021/05/23 04:59:22;;;;;;;9.30;5.42;;;;;;;12.00;64.78;94485.97;1751645;82;21067;-50
2021/05/23 05:01:50;;;;;;;5.65;4.85;;;;;;;12.04;64.80;94493.48;1751720;82;20984;-49
2021/05/23 05:04:16;;;;;;;5.45;4.58;;;;;;;12.09;64.50;94495.61;1751662;80;21056;-50
2021/05/23 05:06:43;;;;;;;6.87;5.45;;;;;;;12.13;64.51;94494.83;1751780;82;21548;-49
2021/05/23 05:09:11;;;;;;;8.28;5.58;;;;;;;12.20;64.15;94506.31;1751749;82;20992;-50
2021/05/23 05:11:38;;;;;;;9.83;7.05;;;;;;;12.30;63.89;94513.32;1751807;82;22029;-50
2021/05/23 05:14:08;;;;;;;23.95;12.33;;;;;;;12.38;63.46;94516.52;1751610;82;21075;-50
2021/05/23 05:16:36;;;;;;;16.20;6.97;;;;;;;12.48;63.23;94522.93;1751731;82;20924;-50
2021/05/23 05:19:03;;;;;;;8.48;5.55;;;;;;;12.64;62.70;94523.95;1751786;82;20984;-52
2021/05/23 05:21:30;;;;;;;6.30;4.90;;;;;;;12.75;62.37;94523.60;1751797;82;21499;-50
2021/05/23 05:23:57;;;;;;;5.90;4.62;;;;;;;12.88;62.21;94520.03;1751727;82;21668;-50
2021/05/23 05:26:23;;;;;;;4.42;4.03;;;;;;;13.00;62.03;94519.69;1751704;82;21111;-50
2021/05/23 05:28:50;;;;;;;6.30;4.28;;;;;;;13.09;61.73;94515.52;1751639;82;20976;-50
2021/05/23 05:31:17;;;;;;;11.95;4.83;;;;;;;13.18;61.21;94507.17;1751660;82;21016;-51
2021/05/23 05:33:44;;;;;;;6.58;4.22;;;;;;;13.22;61.04;94507.75;1751730;82;21608;-50
2021/05/23 05:36:11;;;;;;;5.15;3.95;;;;;;;13.28;60.57;94503.88;1751581;82;21013;-50
2021/05/23 05:38:38;;;;;;;8.48;4.60;;;;;;;13.33;60.45;94507.40;1751726;82;21528;-51
2021/05/23 05:41:05;;;;;;;9.68;4.45;;;;;;;13.40;60.34;94513.16;1751781;82;21064;-50
2021/05/23 05:43:32;;;;;;;6.03;3.50;;;;;;;13.47;60.05;94519.11;1751584;82;21144;-51
2021/05/23 05:45:59;;;;;;;5.95;4.22;;;;;;;13.55;59.71;94513.99;1751813;82;20955;-51
2021/05/23 05:48:26;;;;;;;8.15;3.83;;;;;;;13.63;59.56;94517.94;1751728;82;21043;-51
2021/05/23 05:50:54;;;;;;;8.43;3.77;;;;;;;13.71;58.89;94530.94;1751738;82;21530;-50
2021/05/23 05:53:20;;;;;;;6.10;3.87;;;;;;;13.81;58.79;94523.33;1751647;82;20997;-50
2021/05/23 05:55:47;;;;;;;6.95;3.70;;;;;;;13.90;58.30;94521.27;1751675;82;21084;-50
2021/05/23 05:58:13;;;;;;;15.90;4.20;;;;;;;14.02;58.33;94519.47;1751760;82;21517;-51
2021/05/23 06:00:40;;;;;;;6.45;3.25;;;;;;;14.15;57.83;94516.57;1751776;82;21075;-52
2021/05/23 06:03:06;;;;;;;7.87;4.22;;;;;;;14.29;57.28;94506.78;1751591;82;21095;-51
2021/05/23 06:05:33;;;;;;;3.92;3.22;;;;;;;14.41;56.83;94507.91;1751665;82;21059;-50
2021/05/23 06:08:00;;;;;;;3.80;3.22;;;;;;;14.51;56.03;94512.87;1751780;82;21008;-50
2021/05/23 06:10:26;;;;;;;4.72;3.20;;;;;;;14.63;55.86;94503.48;1751641;82;21028;-50
2021/05/23 06:12:53;;;;;;;5.45;3.27;;;;;;;14.75;55.43;94494.12;1751746;82;21084;-51
2021/05/23 06:15:20;;;;;;;6.80;3.02;;;;;;;14.90;55.46;94489.33;1751476;82;20972;-50
2021/05/23 06:17:47;;;;;;;5.55;2.60;;;;;;;15.06;54.98;94477.73;1751729;82;21064;-50
2021/05/23 06:20:14;;;;;;;4.30;2.92;;;;;;;15.25;54.02;94474.08;1751555;82;21068;-50
2021/05/23 06:22:43;;;;;;;3.05;2.10;;;;;;;15.45;51.86;94479.66;1751777;82;21096;-50
2021/05/23 06:25:12;;;;;;;2.45;1.72;;;;;;;15.62;50.52;94481.41;1751604;82;21092;-51
2021/05/23 06:27:38;;;;;;;3.17;1.90;;;;;;;15.74;49.26;94483.69;1751576;82;20925;-51
2021/05/23 06:30:08;;;;;;;1.52;1.40;;;;;;;15.83;49.42;94482.92;1751627;82;21020;-51
2021/05/23 06:32:34;;;;;;;1.82;1.40;;;;;;;15.94;47.92;94479.51;1751439;82;21052;-51
2021/05/23 06:35:02;;;;;;;3.80;1.77;;;;;;;16.01;47.74;94477.08;1757049;80;21012;-50
2021/05/23 06:37:29;;;;;;;2.55;1.60;;;;;;;16.10;46.76;94469.22;1735649;80;21048;-51
2021/05/23 06:39:56;;;;;;;4.42;1.95;;;;;;;16.21;46.10;94472.09;1753760;80;21071;-50
2021/05/23 06:42:22;;;;;;;2.15;1.35;;;;;;;16.30;45.60;94468.52;1753447;80;20973;-51
2021/05/23 06:44:50;;;;;;;1.70;1.60;;;;;;;16.42;45.40;94464.02;1746868;80;21484;-49
2021/05/23 06:47:17;;;;;;;2.33;1.35;;;;;;;16.54;45.21;94463.49;1744617;80;21080;-51
2021/05/23 06:49:43;;;;;;;1.80;1.50;;;;;;;16.65;44.47;94458.78;1754220;80;21086;-50
2021/05/23 06:52:10;;;;;;;1.72;1.50;;;;;;;16.76;44.80;94456.08;1740547;80;20955;-51
2021/05/23 06:54:37;;;;;;;3.33;1.50;;;;;;;16.87;44.23;94457.56;1724143;82;21047;-50
2021/05/23 06:57:05;;;;;;;5.28;4.22;;;;;;;16.97;44.46;94453.97;1688443;83;21048;-51
2021/05/23 06:59:32;;;;;;;2.55;1.98;;;;;;;17.07;43.85;94450.50;1726086;82;21060;-50
2021/05/23 07:01:59;;;;;;;5.45;1.52;;;;;;;17.19;44.19;94446.54;1722909;82;21793;-50
2021/05/23 07:04:26;;;;;;;29.27;3.50;;;;;;;17.30;43.25;94439.63;1725335;82;21607;-52
2021/05/23 07:06:54;;;;;;;2.12;1.40;;;;;;;17.42;42.54;94443.28;1726100;82;21122;-51
2021/05/23 07:09:21;;;;;;;4.95;2.60;;;;;;;17.48;42.01;94439.89;1724389;82;21127;-50
2021/05/23 07:11:49;;;;;;;2.92;1.90;;;;;;;17.56;42.69;94439.53;1732891;82;21615;-51
2021/05/23 07:14:15;;;;;;;2.05;1.67;;;;;;;17.65;42.01;94448.43;1739479;81;21043;-50
2021/05/23 07:16:42;;;;;;;2.33;1.50;;;;;;;17.74;41.68;94447.45;1721337;81;21043;-51
2021/05/23 07:19:10;;;;;;;3.45;1.60;;;;;;;17.83;42.23;94450.77;1734897;82;20964;-52
2021/05/23 07:21:36;;;;;;;1.95;1.57;;;;;;;17.92;41.54;94436.66;1736108;82;21064;-51
2021/05/23 07:24:04;;;;;;;2.25;1.32;;;;;;;17.97;40.76;94435.90;1732917;82;21066;-52
2021/05/23 07:26:31;;;;;;;1.47;1.37;;;;;;;18.03;41.09;94436.66;1724515;82;21020;-51
2021/05/23 07:28:58;;;;;;;1.42;1.32;;;;;;;18.10;40.45;94435.42;1722185;82;21596;-50
2021/05/23 07:31:25;;;;;;;4.60;1.45;;;;;;;18.11;40.56;94425.80;1721182;82;21132;-50
2021/05/23 07:33:52;;;;;;;2.05;1.45;;;;;;;18.19;41.66;94426.20;1714964;82;21011;-50
2021/05/23 07:36:20;;;;;;;1.55;1.20;;;;;;;18.33;41.69;94423.23;1724957;82;21017;-50
2021/05/23 07:38:47;;;;;;;4.80;1.62;;;;;;;18.48;41.17;94421.59;1719863;82;21043;-51
2021/05/23 07:41:14;;;;;;;1.50;1.40;;;;;;;18.60;40.52;94425.27;1713729;82;20956;-50
2021/05/23 07:43:41;;;;;;;2.08;1.40;;;;;;;18.69;39.82;94425.64;1725914;82;21488;-50
2021/05/23 07:46:08;;;;;;;1.40;1.30;;;;;;;18.75;38.62;94429.95;1729619;82;21017;-51
2021/05/23 07:48:35;;;;;;;2.90;1.30;;;;;;;18.78;38.56;94428.94;1728053;82;21131;-50
2021/05/23 07:51:01;;;;;;;2.02;1.55;;;;;;;18.86;37.38;94427.14;1665241;85;21103;-50
2021/05/23 07:53:28;;;;;;;1.90;1.15;;;;;;;18.88;37.58;94420.45;1721507;82;20981;-49
2021/05/23 07:55:56;;;;;;;1.17;1.00;;;;;;;18.95;37.33;94421.32;1671553;84;22222;-49
2021/05/23 07:58:23;;;;;;;1.52;1.02;;;;;;;19.02;37.62;94427.77;1726570;81;21501;-50
2021/05/23 08:00:50;;;;;;;1.35;0.80;;;;;;;19.07;37.54;94422.83;1718261;82;20973;-50
2021/05/23 08:03:17;;;;;;;4.33;3.40;;;;;;;19.14;37.43;94420.91;1718340;82;21056;-53
2021/05/23 08:05:44;;;;;;;2.17;1.32;;;;;;;19.18;37.26;94420.03;1724359;82;21039;-50
2021/05/23 08:08:11;;;;;;;5.15;1.30;;;;;;;19.28;37.17;94419.13;1715225;82;21047;-51
2021/05/23 08:10:38;;;;;;;1.02;0.93;;;;;;;19.39;36.65;94419.85;1725445;82;21106;-50
2021/05/23 08:13:05;;;;;;;2.67;1.30;;;;;;;19.50;36.76;94419.83;1729703;82;21481;-50
2021/05/23 08:15:33;;;;;;;1.42;1.05;;;;;;;19.67;38.41;94412.78;1718325;82;20981;-50
2021/05/23 08:18:00;;;;;;;3.92;1.30;;;;;;;19.84;39.00;94414.86;1723158;82;21130;-50
2021/05/23 08:20:29;;;;;;;2.33;0.90;;;;;;;19.94;38.66;94412.66;1733532;82;20981;-51
2021/05/23 08:22:56;;;;;;;2.60;1.10;;;;;;;20.08;37.62;94406.02;1726805;81;21092;-51
2021/05/23 08:25:22;;;;;;;1.50;1.00;;;;;;;20.20;38.10;94399.84;1735544;81;20980;-53
2021/05/23 08:27:49;;;;;;;2.72;1.25;;;;;;;20.34;38.28;94397.98;1733174;81;21679;-51
2021/05/23 08:30:17;;;;;;;2.10;1.15;;;;;;;20.42;38.14;94397.54;1720207;82;21197;-50
2021/05/23 08:32:44;;;;;;;1.37;1.05;;;;;;;20.54;37.36;94403.17;1729716;82;21373;-50
2021/05/23 08:35:12;;;;;;;2.33;1.10;;;;;;;20.66;37.93;94415.77;1726317;82;21043;-51
2021/05/23 08:37:39;;;;;;;0.93;0.82;;;;;;;20.77;38.30;94409.45;1732444;82;21012;-50
2021/05/23 08:40:09;;;;;;;1.17;0.85;;;;;;;20.86;36.74;94412.58;1736574;81;21148;-53
2021/05/23 08:42:36;;;;;;;1.45;0.90;;;;;;;20.91;36.64;94408.34;1728364;82;21071;-51
2021/05/23 08:45:06;;;;;;;1.98;1.05;;;;;;;20.97;36.19;94416.06;1727397;81;21091;-52
2021/05/23 08:47:44;;;;;;;2.02;1.00;;;;;;;20.99;35.63;94417.70;1722949;82;21198;-52
2021/05/23 08:50:10;;;;;;;5.53;1.05;;;;;;;20.96;36.01;94422.17;1720904;82;22270;-51
2021/05/23 08:52:37;;;;;;;4.20;1.25;;;;;;;20.98;36.62;94414.02;1723484;82;21142;-50
2021/05/23 08:55:06;;;;;;;2.92;1.10;;;;;;;21.02;36.79;94417.28;1725267;82;21095;-52
2021/05/23 08:57:34;;;;;;;1.62;1.10;;;;;;;21.08;36.89;94412.41;1725878;82;20979;-51
2021/05/23 09:00:02;;;;;;;1.45;1.00;;;;;;;21.09;35.59;94412.52;1716433;82;21055;-51
2021/05/23 09:02:29;;;;;;;1.12;0.82;;;;;;;21.15;36.05;94416.02;1730591;81;20979;-51
2021/05/23 09:04:57;;;;;;;0.78;0.78;;;;;;;21.23;36.26;94419.73;1729522;81;21078;-49
2021/05/23 09:07:24;;;;;;;1.10;1.02;;;;;;;21.24;35.79;94424.83;1728842;82;21133;-50
2021/05/23 09:09:51;;;;;;;2.70;0.95;;;;;;;21.22;36.16;94421.02;1725859;82;21160;-50
2021/05/23 09:12:19;;;;;;;4.30;1.15;;;;;;;21.17;35.06;94423.24;1722152;82;21055;-51
2021/05/23 09:14:50;;;;;;;2.95;1.30;;;;;;;21.12;36.44;94408.02;1719218;82;21038;-50
2021/05/23 09:17:26;;;;;;;4.72;1.20;;;;;;;21.09;36.98;94420.26;1731625;82;21504;-50
2021/05/23 09:19:55;;;;;;;6.35;1.22;;;;;;;21.01;37.20;94424.92;1733201;82;21123;-52
2021/05/23 09:22:27;;;;;;;3.62;1.05;;;;;;;20.97;36.14;94422.28;1727270;82;21107;-50
2021/05/23 09:24:59;;;;;;;2.80;1.45;;;;;;;20.92;37.03;94427.30;1724028;82;21056;-52
2021/05/23 09:27:29;;;;;;;3.15;1.27;;;;;;;20.86;36.47;94434.33;1729425;82;21043;-52
2021/05/23 09:30:19;;;;;;;4.10;1.00;;;;;;;20.79;35.82;94432.08;1716270;82;21064;-50
2021/05/23 09:32:44;;;;;;;1.12;0.90;;;;;;;20.73;35.50;94436.20;1718051;82;20965;-50
2021/05/23 09:35:10;;;;;;;2.98;0.80;;;;;;;20.59;34.88;94431.06;1721531;82;21444;-51
2021/05/23 09:37:37;;;;;;;3.55;1.65;;;;;;;20.48;34.78;94442.97;1678077;84;21072;-54
2021/05/23 09:40:18;;;;;;;1.52;1.20;;;;;;;20.40;34.99;94440.62;1734050;82;21045;-58
2021/05/23 09:42:47;;;;;;;3.15;0.90;;;;;;;20.35;36.16;94440.02;1726914;81;21559;-51
2021/05/23 09:45:14;;;;;;;1.50;0.90;;;;;;;20.30;36.55;94437.37;1727418;81;21088;-52
2021/05/23 09:47:55;;;;;;;3.12;1.07;;;;;;;20.24;36.99;94438.68;1724230;81;21076;-51
2021/05/23 09:50:36;;;;;;;11.30;2.58;;;;;;;20.17;35.64;94432.26;1726359;82;21267;-51
2021/05/23 09:53:17;;;;;;;11.60;3.12;;;;;;;20.09;35.92;94430.52;1722404;81;21028;-51
2021/05/23 09:55:57;;;;;;;4.65;3.85;;;;;;;20.02;36.48;94436.02;1722718;82;21107;-51
2021/05/23 09:58:27;;;;;;;10.13;8.95;;;;;;;19.94;36.91;94437.78;1731060;82;21080;-52
2021/05/23 10:00:54;;;;;;;7.25;3.22;;;;;;;19.86;36.39;94442.41;1726880;82;21052;-52
2021/05/23 10:03:23;;;;;;;8.05;2.52;;;;;;;19.77;37.12;94444.08;1704818;82;21036;-50
2021/05/23 10:05:51;;;;;;;10.58;2.30;;;;;;;19.65;37.07;94452.39;1727265;81;21076;-53
2021/05/23 10:08:19;;;;;;;7.65;3.72;;;;;;;19.46;37.61;94462.59;1725406;82;21528;-51
2021/05/23 10:10:46;;;;;;;5.53;2.00;;;;;;;19.27;38.39;94464.41;1717979;82;21937;-50
2021/05/23 10:13:14;;;;;;;10.48;2.52;;;;;;;19.15;38.74;94467.05;1723677;82;21096;-51
2021/05/23 10:15:40;;;;;;;7.75;2.80;;;;;;;18.98;39.37;94472.53;1719460;82;21119;-51
2021/05/23 10:18:08;;;;;;;7.85;1.80;;;;;;;18.83;40.51;94475.55;1736131;82;21084;-50
2021/05/23 10:20:36;;;;;;;13.22;1.95;;;;;;;18.68;41.09;94485.44;1731770;81;21655;-50
2021/05/23 10:23:16;;;;;;;5.55;1.17;;;;;;;18.48;42.46;94475.27;1730024;81;20983;-51
2021/05/23 10:25:53;;;;;;;2.45;1.27;;;;;;;18.26;42.90;94475.20;1732569;82;21448;-51
2021/05/23 10:28:21;;;;;;;3.12;2.10;;;;;;;18.06;44.25;94475.28;1740308;81;21036;-50
2021/05/23 10:30:53;;;;;;;6.00;3.95;;;;;;;17.88;45.06;94481.28;1732181;82;20992;-52
2021/05/23 10:33:21;;;;;;;4.62;1.98;;;;;;;17.76;45.71;94479.09;1727985;81;21071;-52
2021/05/23 10:35:51;;;;;;;2.20;1.90;;;;;;;17.67;45.55;94481.33;1725022;82;20995;-50
2021/05/23 10:38:22;;;;;;;4.30;1.57;;;;;;;17.57;46.01;94483.56;1728790;81;20972;-50
2021/05/23 10:40:58;;;;;;;4.08;1.62;;;;;;;17.50;46.47;94490.22;1727551;81;21780;-52
2021/05/23 10:43:30;;;;;;;3.62;1.57;;;;;;;17.40;47.13;94486.11;1721626;81;20994;-50
2021/05/23 10:46:08;;;;;;;;;;;;;;;17.30;47.69;94488.94;1739532;82;21090;-51
2021/05/23 10:48:36;;;;;;;3.37;2.20;;;;;;;17.24;48.58;94490.29;1737177;82;20241;-50
2021/05/23 10:51:15;;;;;;;7.08;2.22;;;;;;;17.18;49.31;94490.11;1719785;82;21057;-49
2021/05/23 10:53:42;;;;;;;3.58;1.72;;;;;;;17.14;50.30;94492.38;1729046;81;21023;-51
2021/05/23 10:56:32;;;;;;;4.47;1.62;;;;;;;17.07;50.87;94484.50;1719217;82;21484;-49
2021/05/23 10:59:02;;;;;;;1.65;1.55;;;;;;;16.94;51.25;94486.92;1727731;82;21070;-49
2021/05/23 11:01:46;;;;;;;1.30;1.20;;;;;;;16.70;52.24;94502.51;1725875;82;21142;-51
2021/05/23 11:04:20;;;;;;;1.87;1.45;;;;;;;16.50;52.44;94501.81;1725916;82;21592;-50
2021/05/23 11:06:47;;;;;;;3.15;1.35;;;;;;;16.28;53.05;94511.92;1706084;82;21000;-50
2021/05/23 11:09:20;;;;;;;1.45;1.32;;;;;;;16.14;53.35;94510.00;1702598;82;21564;-50
2021/05/23 11:11:48;;;;;;;6.00;2.52;;;;;;;16.07;53.62;94503.50;1723310;82;21799;-50
2021/05/23 11:14:24;;;;;;;5.10;2.27;;;;;;;16.01;53.74;94506.21;1730803;82;21587;-50
2021/05/23 11:16:55;;;;;;;2.80;1.92;;;;;;;15.99;54.03;94508.72;1720239;82;21015;-51
2021/05/23 11:19:24;;;;;;;2.92;2.60;;;;;;;15.98;54.51;94512.73;1731128;81;21623;-49
2021/05/23 11:21:53;;;;;;;5.22;3.52;;;;;;;15.94;54.91;94501.06;1725851;82;21146;-51
2021/05/23 11:24:30;;;;;;;3.00;2.67;;;;;;;15.94;56.08;94484.42;1713827;82;21071;-50
2021/05/23 11:26:57;;;;;;;3.58;2.10;;;;;;;15.97;57.47;94462.66;1736605;82;21080;-52
2021/05/23 11:29:26;;;;;;;4.12;1.75;;;;;;;16.03;57.89;94466.25;1725681;82;21142;-50
2021/05/23 11:31:53;;;;;;;3.37;1.80;;;;;;;16.05;57.23;94479.00;1727497;82;21069;-51
2021/05/23 11:34:20;;;;;;;4.08;2.20;;;;;;;16.09;57.36;94465.67;1725010;82;21016;-49
2021/05/23 11:36:49;;;;;;;4.47;2.45;;;;;;;16.14;57.92;94469.15;1723999;82;21475;-51
2021/05/23 11:39:19;;;;;;;3.90;3.40;;;;;;;16.20;58.10;94468.56;1703903;82;21141;-49
2021/05/23 11:41:48;;;;;;;3.27;2.20;;;;;;;16.27;58.55;94462.56;1727964;81;21126;-50